Impacts METAR Board
IDs:

KAXN - Alexandria/Chandler, MN, US

Updated at: 1900 UTC 23 Apr 2018
Potential Impact None Slight Moderate High
Time 23/07Z 23/08Z 23/09Z 23/10Z 23/11Z 23/12Z 23/13Z 23/14Z 23/15Z 23/16Z 23/17Z 23/18Z 23/19Z
Temp42 43 43 41 41 40 48 52 58 61 64 65 67
Dewpt35 35 33 32 31 32 36 36 38 39 38 37 35
Altim30.22 30.21 30.22 30.21 30.22 30.23 30.23 30.23 30.23 30.22 30.22 30.20 30.18
VIS10 10 10 10 10 10 10 10 10 10 10 10 10
CIG-- -- -- -- -- -- -- -- -- -- -- -- --
CoverCLRCLRCLRCLRCLRCLRCLRCLRCLRCLRCLRCLRCLR
FltCatVFRVFRVFRVFRVFRVFRVFRVFRVFRVFRVFRVFRVFR
WX--------------------------
WDir190180210200210020022022022000
WSpd4 8 7 6 6 0 6 8 7 8 6 3
WGst-- -- -- -- -- -- -- -- -- -- -- -- --
Raw hourly METARs
KAXN 230653Z AUTO 19004KT 10SM CLR 06/02 A3022 RMK AO2 SLP241 T00560017
KAXN 230753Z AUTO 18008KT 10SM CLR 06/02 A3021 RMK AO2 SLP237 T00610017
KAXN 230853Z AUTO 21007KT 10SM CLR 06/01 A3022 RMK AO2 SLP239 T00610006 55004
KAXN 230953Z AUTO 20006KT 10SM CLR 05/00 A3021 RMK AO2 SLP238 T00500000
KAXN 231053Z AUTO 21006KT 10SM CLR 05/M01 A3022 RMK AO2 SLP238 T00501006
KAXN 231153Z AUTO 00000KT 10SM CLR 04/00 A3023 RMK AO2 SLP243 T00440000 10067 20033 53002
KAXN 231253Z AUTO 20006KT 10SM CLR 09/02 A3023 RMK AO2 SLP245 T00890022
KAXN 231353Z AUTO 22008KT 10SM CLR 11/02 A3023 RMK AO2 SLP245 T01110022
KAXN 231453Z AUTO 22007KT 10SM CLR 14/03 A3023 RMK AO2 SLP243 T01440033 50000
KAXN 231553Z AUTO 22008KT 10SM CLR 16/04 A3022 RMK AO2 SLP240 T01610039
KAXN 231653Z AUTO VRB06KT 10SM CLR 18/03 A3022 RMK AO2 SLP237 T01780033
KAXN 231753Z AUTO 10SM CLR 18/03 A3020 RMK AO2 SLP232 T01830028 10189 20044 58008
KAXN 231853Z AUTO VRB03KT 10SM CLR 19/02 A3018 RMK AO2 SLP225 T01940017



Page loaded:  19:02 UTC  |   12:02 PM Pacific  |   01:02 PM Mountain  |   02:02 PM Central  |   03:02 PM Eastern

 

ADVISORIES

FORECASTS

FORECASTS

OBSERVATIONS

USER TOOLS

ABOUT US